Time;durP1;ratioP1;P1;durP2;ratioP2;P2;SDS_P1;SDS_P2;PMS_P1;PMS_P2;Temp;Humidity;BMP_temperature;BMP_pressure;BME280_temperature;BME280_humidity;BME280_pressure;Samples;Min_cycle;Max_cycle;Signal;HPM_P1;HPM_P2
2022/05/22 00:03:48;;;;;;;3.10;2.90;;;17.30;84.80;;;;;;10430213;28;20193;-78
2022/05/22 00:08:50;;;;;;;2.37;2.10;;;17.20;84.60;;;;;;10458468;28;20280;-78
2022/05/22 00:13:52;;;;;;;2.70;2.50;;;17.20;85.70;;;;;;10429485;28;20642;-78
2022/05/22 00:19:00;;;;;;;2.40;2.30;;;17.20;85.60;;;;;;10454037;28;20573;-78
2022/05/22 00:24:02;;;;;;;3.00;2.80;;;17.10;86.20;;;;;;10451852;28;20303;-77
2022/05/22 00:29:06;;;;;;;2.87;2.67;;;17.20;88.00;;;;;;10454250;28;20427;-79
2022/05/22 00:34:10;;;;;;;2.73;2.43;;;17.30;86.80;;;;;;10454066;28;20221;-77
2022/05/22 00:39:12;;;;;;;3.00;2.70;;;17.10;85.90;;;;;;10447673;28;20264;-77
2022/05/22 00:44:14;;;;;;;2.57;2.33;;;16.90;85.80;;;;;;10453458;28;20599;-78
2022/05/22 00:49:23;;;;;;;3.27;2.60;;;17.00;88.50;;;;;;10428476;28;20700;-78
2022/05/22 00:54:29;;;;;;;2.80;2.60;;;16.90;87.20;;;;;;10450958;28;20197;-78
2022/05/22 00:59:37;;;;;;;3.13;2.93;;;16.90;88.10;;;;;;10418323;28;20221;-78
2022/05/22 01:04:41;;;;;;;2.93;2.63;;;16.80;88.70;;;;;;10424416;28;20300;-78
2022/05/22 01:09:44;;;;;;;3.93;2.60;;;16.80;88.00;;;;;;10447840;28;20278;-77
2022/05/22 01:14:47;;;;;;;3.30;2.90;;;16.80;88.30;;;;;;10408450;28;20209;-78
2022/05/22 01:20:00;;;;;;;4.23;2.37;;;16.80;88.90;;;;;;10429689;28;20213;-78
2022/05/22 01:25:06;;;;;;;2.90;2.70;;;16.90;87.70;;;;;;10433957;28;20197;-78
2022/05/22 01:30:13;;;;;;;2.80;2.63;;;16.90;87.70;;;;;;10428087;28;20918;-77
2022/05/22 01:35:20;;;;;;;4.23;3.03;;;17.00;89.00;;;;;;10447374;28;20219;-77
2022/05/22 01:40:24;;;;;;;6.70;2.93;;;17.00;89.40;;;;;;10433971;28;20228;-78
2022/05/22 01:45:29;;;;;;;3.03;2.83;;;16.90;88.10;;;;;;10434160;28;20232;-78
2022/05/22 01:50:33;;;;;;;3.00;2.80;;;17.00;89.00;;;;;;10422017;28;20315;-78
2022/05/22 01:55:37;;;;;;;4.77;3.23;;;17.00;89.70;;;;;;10426418;28;20227;-78
2022/05/22 02:00:40;;;;;;;3.87;2.73;;;16.90;89.00;;;;;;10464894;28;20229;-78
2022/05/22 02:05:44;;;;;;;3.07;2.77;;;16.90;89.00;;;;;;10432562;28;20296;-78
2022/05/22 02:10:48;;;;;;;3.87;3.57;;;16.90;90.60;;;;;;10390293;28;20217;-79
2022/05/22 02:15:52;;;;;;;3.47;3.17;;;16.80;90.20;;;;;;10399328;28;20666;-79
2022/05/22 02:20:54;;;;;;;3.23;3.03;;;16.80;90.10;;;;;;10427707;28;20220;-78
2022/05/22 02:25:59;;;;;;;4.60;4.20;;;16.80;90.20;;;;;;10420360;28;20198;-78
2022/05/22 02:31:03;;;;;;;3.70;3.30;;;16.70;90.00;;;;;;10417718;28;20221;-79
2022/05/22 02:36:08;;;;;;;6.30;3.70;;;16.60;90.40;;;;;;10413581;28;20285;-78
2022/05/22 02:41:16;;;;;;;3.97;3.67;;;16.60;90.50;;;;;;10416643;28;20228;-79
2022/05/22 02:46:24;;;;;;;5.50;4.20;;;16.50;90.70;;;;;;10418577;28;20202;-79
2022/05/22 02:51:27;;;;;;;3.77;3.50;;;16.60;91.10;;;;;;10415840;28;20230;-79
2022/05/22 02:56:33;;;;;;;3.70;3.50;;;16.60;90.80;;;;;;10416477;28;20608;-78
2022/05/22 03:01:35;;;;;;;3.63;3.20;;;16.60;90.70;;;;;;10431343;28;20260;-79
2022/05/22 03:06:39;;;;;;;4.23;3.87;;;16.60;91.00;;;;;;10441490;28;20267;-79
2022/05/22 03:11:43;;;;;;;4.30;4.00;;;16.60;91.00;;;;;;10418755;28;20719;-79
2022/05/22 03:16:45;;;;;;;4.90;4.50;;;16.50;91.10;;;;;;10431586;28;20193;-77
2022/05/22 03:21:58;;;;;;;4.20;3.90;;;16.40;91.10;;;;;;10434141;28;20213;-78
2022/05/22 03:27:04;;;;;;;4.10;3.90;;;16.30;90.90;;;;;;10436664;28;20552;-78
2022/05/22 03:32:07;;;;;;;4.53;4.10;;;16.30;91.50;;;;;;10452469;28;20217;-79
2022/05/22 03:37:12;;;;;;;4.13;3.73;;;16.20;91.50;;;;;;10439312;28;20818;-79
2022/05/22 03:42:17;;;;;;;3.73;3.30;;;16.20;91.30;;;;;;10443120;28;20213;-78
2022/05/22 03:47:19;;;;;;;5.43;3.90;;;16.10;91.40;;;;;;10437822;28;20257;-78
2022/05/22 03:52:40;;;;;;;5.40;4.40;;;16.00;91.40;;;;;;10444746;28;20757;-78
2022/05/22 03:57:49;;;;;;;4.60;3.30;;;15.90;91.50;;;;;;10429880;28;20558;-78
2022/05/22 04:02:54;;;;;;;4.20;3.80;;;15.80;91.50;;;;;;10437270;28;20210;-78
2022/05/22 04:07:56;;;;;;;4.87;4.50;;;15.90;91.50;;;;;;10420607;28;20250;-77
2022/05/22 04:13:13;;;;;;;4.53;3.80;;;15.90;92.40;;;;;;10453664;28;20220;-78
2022/05/22 04:18:15;;;;;;;4.87;4.47;;;16.00;92.10;;;;;;10434542;28;20216;-77
2022/05/22 04:28:39;;;;;;;4.60;4.30;;;16.00;92.60;;;;;;10432008;28;20223;-77
2022/05/22 04:33:48;;;;;;;4.97;4.30;;;16.00;92.30;;;;;;10428874;28;20716;-77
2022/05/22 04:38:50;;;;;;;4.60;4.40;;;16.10;92.70;;;;;;10426919;28;20307;-77
2022/05/22 04:43:54;;;;;;;4.90;4.17;;;16.10;92.50;;;;;;10428250;28;20338;-76
2022/05/22 04:48:57;;;;;;;4.60;4.30;;;16.20;92.50;;;;;;10424028;28;20608;-76
2022/05/22 04:54:00;;;;;;;4.07;3.80;;;16.30;92.10;;;;;;10445248;28;20229;-78
2022/05/22 04:59:19;;;;;;;4.73;4.33;;;16.30;91.90;;;;;;10431609;28;20690;-77
2022/05/22 05:04:21;;;;;;;4.30;4.00;;;16.30;91.80;;;;;;10433271;28;20242;-78
2022/05/22 05:09:45;;;;;;;4.70;4.27;;;16.40;91.70;;;;;;10444813;28;20220;-76
2022/05/22 05:15:12;;;;;;;4.50;4.10;;;16.40;91.40;;;;;;10444013;28;20680;-78
2022/05/22 05:20:23;;;;;;;7.07;4.17;;;16.30;91.50;;;;;;10429900;28;20673;-77
2022/05/22 05:25:28;;;;;;;4.67;4.37;;;16.30;91.60;;;;;;10406717;28;20212;-77
2022/05/22 05:30:32;;;;;;;4.00;3.80;;;16.40;91.70;;;;;;10432460;28;20684;-78
2022/05/22 05:35:35;;;;;;;4.60;4.30;;;16.50;92.20;;;;;;10410095;28;20233;-78
2022/05/22 05:40:40;;;;;;;4.50;4.10;;;16.70;92.20;;;;;;10428520;28;20216;-78
2022/05/22 05:45:50;;;;;;;4.77;4.40;;;16.70;92.20;;;;;;10421413;28;20499;-78
2022/05/22 05:50:55;;;;;;;4.07;3.77;;;16.70;91.50;;;;;;10462902;22;20228;-79
2022/05/22 05:56:13;;;;;;;5.13;4.73;;;16.70;91.30;;;;;;10434853;28;20197;-78
2022/05/22 06:01:36;;;;;;;4.20;3.80;;;16.80;91.60;;;;;;10446605;28;20214;-79
2022/05/22 06:06:39;;;;;;;4.50;4.20;;;16.80;91.30;;;;;;10409566;28;20214;-79
2022/05/22 06:11:42;;;;;;;3.93;3.63;;;16.90;91.60;;;;;;10410190;28;20237;-81
2022/05/22 06:16:59;;;;;;;6.70;3.70;;;17.00;91.00;;;;;;10396496;28;20703;-79
2022/05/22 06:22:09;;;;;;;3.60;3.40;;;17.10;91.30;;;;;;10408128;28;20210;-81
2022/05/22 06:27:12;;;;;;;3.87;3.67;;;17.30;91.00;;;;;;10392932;28;20785;-78
2022/05/22 06:32:40;;;;;;;4.13;3.83;;;17.50;91.40;;;;;;10427006;28;20257;-80
2022/05/22 06:37:49;;;;;;;4.00;3.70;;;17.70;90.70;;;;;;10416831;28;20568;-79
2022/05/22 06:43:23;;;;;;;3.00;2.90;;;17.90;90.40;;;;;;10404133;28;20217;-80
2022/05/22 06:48:33;;;;;;;3.63;3.37;;;18.20;90.30;;;;;;10417509;28;20654;-80
2022/05/22 06:53:54;;;;;;;3.77;3.30;;;18.40;85.90;;;;;;10408816;28;20745;-79
2022/05/22 06:59:16;;;;;;;3.80;3.10;;;18.70;87.20;;;;;;10427473;28;20266;-80
2022/05/22 07:04:48;;;;;;;4.17;3.77;;;19.00;87.10;;;;;;10390584;28;20657;-79
2022/05/22 07:10:18;;;;;;;3.40;3.20;;;19.30;84.30;;;;;;10430579;28;20224;-80
2022/05/22 07:15:38;;;;;;;4.00;3.60;;;19.60;85.20;;;;;;10408683;28;20222;-79
2022/05/22 07:21:07;;;;;;;3.83;3.53;;;19.90;85.40;;;;;;10372079;28;20705;-78
2022/05/22 07:26:21;;;;;;;3.20;3.00;;;20.10;83.70;;;;;;10385041;28;20209;-79
2022/05/22 07:31:56;;;;;;;3.20;3.00;;;20.30;81.70;;;;;;10433553;28;20248;-78
2022/05/22 07:37:28;;;;;;;3.70;3.37;;;20.50;79.50;;;;;;10382531;28;20705;-79
2022/05/22 07:42:39;;;;;;;3.20;3.00;;;20.80;81.00;;;;;;10385947;28;20217;-79
2022/05/22 07:48:13;;;;;;;3.47;3.27;;;21.10;80.90;;;;;;10395157;28;20218;-79
2022/05/22 07:53:33;;;;;;;3.60;3.33;;;21.60;80.60;;;;;;10396011;28;20677;-79
2022/05/22 07:58:58;;;;;;;3.20;3.00;;;21.90;79.70;;;;;;10413492;28;20214;-78
2022/05/22 08:04:21;;;;;;;3.40;3.00;;;22.30;79.60;;;;;;10376476;28;20203;-79
2022/05/22 08:09:51;;;;;;;3.93;3.63;;;22.60;79.10;;;;;;10402034;28;20226;-81
2022/05/22 08:14:53;;;;;;;3.83;3.27;;;23.00;76.50;;;;;;10399554;28;20206;-78
2022/05/22 08:19:55;;;;;;;3.13;2.97;;;23.50;76.90;;;;;;10370141;28;20234;-78
2022/05/22 08:25:19;;;;;;;3.37;3.07;;;24.10;74.60;;;;;;10390883;28;20217;-78
2022/05/22 08:30:27;;;;;;;3.30;3.10;;;24.70;73.50;;;;;;10424010;28;20233;-80
2022/05/22 08:35:32;;;;;;;3.30;3.10;;;25.30;72.30;;;;;;10392475;28;20721;-82
2022/05/22 08:40:45;;;;;;;4.03;3.30;;;25.90;69.70;;;;;;10425756;28;20236;-81
2022/05/22 08:45:56;;;;;;;2.83;2.63;;;26.40;67.10;;;;;;10395102;28;20588;-81
2022/05/22 08:50:59;;;;;;;3.60;3.40;;;26.70;65.80;;;;;;10411503;28;20284;-80
2022/05/22 09:02:02;;;;;;;2.87;2.77;;;27.30;63.80;;;;;;10365414;28;20217;-81
2022/05/22 09:27:38;;;;;;;2.90;2.40;;;27.90;61.10;;;;;;10327932;28;20242;-85
2022/05/22 09:33:06;;;;;;;2.50;2.30;;;28.00;59.40;;;;;;10395437;28;20245;-86
2022/05/22 09:58:18;;;;;;;3.00;2.80;;;29.70;57.40;;;;;;10383499;28;20197;-82
2022/05/22 10:03:33;;;;;;;2.80;2.60;;;31.00;54.80;;;;;;10415914;28;20236;-84
2022/05/22 10:08:46;;;;;;;4.50;4.07;;;32.20;52.80;;;;;;10402771;28;20200;-80
2022/05/22 10:14:11;;;;;;;3.80;3.50;;;33.40;52.30;;;;;;10397466;28;20209;-82
2022/05/22 10:19:34;;;;;;;3.07;2.70;;;33.40;51.00;;;;;;10403773;28;20253;-83
2022/05/22 10:24:53;;;;;;;2.80;2.60;;;31.90;50.10;;;;;;10394972;28;20213;-80
2022/05/22 10:30:01;;;;;;;3.37;3.17;;;30.00;52.20;;;;;;10372392;28;20241;-83
2022/05/22 10:35:08;;;;;;;2.93;2.73;;;28.80;54.10;;;;;;10414949;28;20202;-83
2022/05/22 10:40:20;;;;;;;2.50;2.37;;;27.80;56.00;;;;;;10392375;28;20220;-80
2022/05/22 10:45:32;;;;;;;2.97;2.70;;;26.80;55.30;;;;;;10378060;28;20246;-80
2022/05/22 10:50:35;;;;;;;2.67;2.57;;;26.20;58.20;;;;;;10373085;28;20229;-79
2022/05/22 10:55:44;;;;;;;2.90;2.70;;;25.80;58.90;;;;;;10418415;28;20205;-81
2022/05/22 11:00:54;;;;;;;2.97;2.67;;;25.50;58.80;;;;;;10416471;28;20225;-80
2022/05/22 11:05:57;;;;;;;2.90;2.70;;;25.10;60.30;;;;;;10398402;28;20213;-80
2022/05/22 11:11:13;;;;;;;4.63;2.97;;;24.80;59.80;;;;;;10415755;28;20222;-79
2022/05/22 11:16:25;;;;;;;3.33;2.97;;;24.60;59.70;;;;;;10400324;28;20197;-80
2022/05/22 11:21:35;;;;;;;3.23;3.00;;;24.40;60.60;;;;;;10395598;28;20799;-80
2022/05/22 11:26:48;;;;;;;3.13;2.93;;;24.20;63.40;;;;;;10378268;28;20226;-81
2022/05/22 11:32:01;;;;;;;2.80;2.60;;;24.20;60.30;;;;;;10386085;28;20268;-80
2022/05/22 11:37:11;;;;;;;3.03;2.83;;;24.20;60.70;;;;;;10383171;28;20202;-81
2022/05/22 11:42:22;;;;;;;2.70;2.60;;;24.20;61.80;;;;;;10383937;28;20729;-80
2022/05/22 11:47:55;;;;;;;3.57;3.27;;;24.30;61.10;;;;;;10387435;28;20198;-80
2022/05/22 11:53:08;;;;;;;3.40;3.13;;;24.20;62.30;;;;;;10416428;28;20257;-81
2022/05/22 11:58:27;;;;;;;3.27;2.97;;;24.20;64.30;;;;;;10410616;28;20214;-80
2022/05/22 12:03:55;;;;;;;3.17;2.97;;;24.20;62.80;;;;;;10403069;28;21023;-80
2022/05/22 12:09:10;;;;;;;3.10;2.90;;;24.30;63.50;;;;;;10397936;28;20209;-82
2022/05/22 12:14:22;;;;;;;3.23;2.93;;;24.40;61.40;;;;;;10381977;28;20202;-81
2022/05/22 12:19:34;;;;;;;3.10;2.80;;;24.30;63.20;;;;;;10380865;28;21028;-81
2022/05/22 12:24:49;;;;;;;4.60;2.90;;;24.30;62.90;;;;;;10392360;28;20659;-81
2022/05/22 12:30:03;;;;;;;3.47;3.27;;;24.30;62.60;;;;;;10380972;28;20221;-80
2022/05/22 12:35:08;;;;;;;3.70;2.50;;;24.30;65.00;;;;;;10408223;28;20198;-81
2022/05/22 12:40:42;;;;;;;3.80;3.40;;;24.30;62.30;;;;;;10374657;28;20218;-81
2022/05/22 12:45:51;;;;;;;2.73;2.47;;;24.30;61.50;;;;;;10367679;28;20678;-81
2022/05/22 12:51:10;;;;;;;2.73;2.53;;;24.20;60.50;;;;;;10357410;28;20724;-81
2022/05/22 12:56:22;;;;;;;3.53;3.33;;;24.20;60.20;;;;;;10378997;28;20484;-81
2022/05/22 13:01:28;;;;;;;3.07;2.87;;;24.20;62.40;;;;;;10355684;28;20218;-84
2022/05/22 13:06:37;;;;;;;3.47;3.17;;;24.30;59.90;;;;;;10368397;28;20211;-84
2022/05/22 13:11:43;;;;;;;2.70;2.50;;;24.30;59.80;;;;;;10369264;28;20218;-83
2022/05/22 13:16:48;;;;;;;3.10;2.90;;;24.40;61.40;;;;;;10395341;28;20190;-84
2022/05/22 13:21:53;;;;;;;4.40;4.10;;;24.50;62.40;;;;;;10385559;28;20747;-81
2022/05/22 13:27:01;;;;;;;2.87;2.67;;;24.60;63.70;;;;;;10399731;28;20670;-82
2022/05/22 13:32:05;;;;;;;3.77;3.50;;;24.60;60.10;;;;;;10398719;28;20308;-81
2022/05/22 13:37:10;;;;;;;2.37;2.27;;;24.60;61.20;;;;;;10389763;28;20208;-83
2022/05/22 13:42:52;;;;;;;2.90;2.70;;;24.60;59.40;;;;;;10394436;28;20273;-80
2022/05/22 13:48:12;;;;;;;3.00;2.80;;;24.60;58.70;;;;;;10372983;28;20225;-82
2022/05/22 13:53:45;;;;;;;2.70;2.57;;;24.70;61.60;;;;;;10378315;28;20654;-81
2022/05/22 13:58:50;;;;;;;3.10;2.80;;;24.80;59.80;;;;;;10424890;28;20206;-81
2022/05/22 14:03:55;;;;;;;2.60;2.50;;;25.00;59.20;;;;;;10397036;28;20624;-81
2022/05/22 14:09:00;;;;;;;2.70;2.50;;;25.10;59.80;;;;;;10386320;28;20281;-80
2022/05/22 14:14:04;;;;;;;2.80;2.60;;;25.30;57.70;;;;;;10390207;28;20688;-80
2022/05/22 14:19:10;;;;;;;3.13;2.90;;;25.40;58.20;;;;;;10380379;28;20563;-79
2022/05/22 14:29:43;;;;;;;3.03;2.67;;;25.40;57.30;;;;;;10420618;28;20222;-81
2022/05/22 14:34:47;;;;;;;2.63;2.43;;;25.40;57.50;;;;;;10409652;28;20585;-81
2022/05/22 14:39:53;;;;;;;3.17;2.97;;;25.40;59.40;;;;;;10423768;28;20230;-81
2022/05/22 14:44:56;;;;;;;4.20;2.60;;;25.30;57.90;;;;;;10401910;28;20244;-80
2022/05/22 14:50:00;;;;;;;2.67;2.07;;;25.30;57.60;;;;;;10422769;28;20305;-81
2022/05/22 14:55:07;;;;;;;2.67;2.57;;;25.30;58.60;;;;;;10383578;28;20231;-81
2022/05/22 15:00:14;;;;;;;2.60;2.40;;;25.30;59.10;;;;;;10420183;28;20645;-83
2022/05/22 15:05:18;;;;;;;4.40;2.40;;;25.30;56.30;;;;;;10365583;28;20223;-81
2022/05/22 15:10:25;;;;;;;2.60;2.40;;;25.50;56.90;;;;;;10394212;28;20234;-81
2022/05/22 15:15:29;;;;;;;2.43;2.30;;;25.60;56.20;;;;;;10389123;28;20217;-81
2022/05/22 15:20:34;;;;;;;2.90;2.63;;;25.60;56.40;;;;;;10415564;28;20221;-80
2022/05/22 15:25:44;;;;;;;2.70;2.57;;;25.60;55.90;;;;;;10394761;28;20245;-80
2022/05/22 15:30:48;;;;;;;2.90;2.60;;;25.60;55.30;;;;;;10396801;28;20221;-80
2022/05/22 15:35:53;;;;;;;2.60;2.40;;;25.60;56.70;;;;;;10413993;28;20201;-80
2022/05/22 15:40:59;;;;;;;2.60;2.50;;;25.50;55.90;;;;;;10358787;28;20261;-80
2022/05/22 15:46:20;;;;;;;2.90;2.73;;;25.40;57.00;;;;;;10412393;28;20285;-80
2022/05/22 15:51:23;;;;;;;3.37;2.83;;;25.30;58.60;;;;;;10408697;28;20236;-81
2022/05/22 15:56:26;;;;;;;2.60;2.40;;;25.10;58.80;;;;;;10390983;28;20273;-80
2022/05/22 16:01:28;;;;;;;4.50;2.93;;;25.00;58.20;;;;;;10409931;28;20236;-81
2022/05/22 16:06:30;;;;;;;4.03;3.83;;;24.80;59.30;;;;;;10407105;28;20643;-81
2022/05/22 16:11:34;;;;;;;3.20;3.00;;;24.70;59.00;;;;;;10388018;28;20222;-79
2022/05/22 16:16:37;;;;;;;4.57;4.20;;;24.60;60.60;;;;;;10383815;28;20295;-79
2022/05/22 16:21:40;;;;;;;2.67;2.43;;;24.40;62.20;;;;;;10404682;28;20226;-80
2022/05/22 16:26:45;;;;;;;2.73;2.53;;;24.30;62.10;;;;;;10393484;28;20222;-81
2022/05/22 16:31:47;;;;;;;3.07;2.87;;;24.20;61.90;;;;;;10402039;28;20312;-81
2022/05/22 16:36:49;;;;;;;2.63;2.43;;;24.20;62.10;;;;;;10400833;28;20285;-79
2022/05/22 16:41:53;;;;;;;2.37;2.20;;;24.20;59.60;;;;;;10372787;28;20765;-80
2022/05/22 16:46:58;;;;;;;3.17;2.97;;;24.10;64.20;;;;;;10417308;28;20238;-80
2022/05/22 16:57:26;;;;;;;2.83;2.60;;;24.10;63.10;;;;;;10416706;28;20228;-80
2022/05/22 17:02:30;;;;;;;11.47;6.83;;;24.00;60.40;;;;;;10426891;28;20494;-80
2022/05/22 17:07:33;;;;;;;3.20;2.63;;;24.00;59.80;;;;;;10394648;28;20198;-80
2022/05/22 17:12:39;;;;;;;5.93;5.33;;;23.90;59.50;;;;;;10410757;28;20225;-80
2022/05/22 17:17:42;;;;;;;3.40;2.40;;;23.80;61.10;;;;;;10380756;28;20209;-79
2022/05/22 17:22:44;;;;;;;3.80;3.50;;;23.70;62.40;;;;;;10393775;28;20301;-81
2022/05/22 17:52:14;;;;;;;3.10;2.80;;;23.60;67.50;;;;;;10453581;22;20250;-79
2022/05/22 17:57:20;;;;;;;2.53;2.43;;;23.60;71.00;;;;;;10482595;28;20411;-79
2022/05/22 18:02:22;;;;;;;2.23;2.03;;;23.50;66.10;;;;;;10457354;28;20311;-79
2022/05/22 18:07:27;;;;;;;2.00;1.90;;;23.40;67.20;;;;;;10490502;28;20255;-78
2022/05/22 18:17:51;;;;;;;2.70;2.03;;;23.10;68.80;;;;;;10488749;28;20200;-79
2022/05/22 18:22:55;;;;;;;2.20;2.10;;;23.00;68.50;;;;;;10481136;28;20231;-78
2022/05/22 18:28:06;;;;;;;2.33;2.20;;;22.80;69.50;;;;;;10486325;28;20204;-79
2022/05/22 18:33:11;;;;;;;2.30;2.20;;;22.90;69.90;;;;;;10483289;28;20244;-78
2022/05/22 18:38:14;;;;;;;3.00;2.77;;;22.60;72.20;;;;;;10483912;28;20231;-79
2022/05/22 18:43:18;;;;;;;3.43;3.13;;;22.50;75.70;;;;;;10484700;28;20774;-78
2022/05/22 18:48:25;;;;;;;3.30;3.00;;;22.40;78.80;;;;;;10484696;28;20580;-78
2022/05/22 18:53:28;;;;;;;4.67;2.80;;;22.50;75.00;;;;;;10471158;28;20660;-78
2022/05/22 18:58:34;;;;;;;5.53;2.73;;;22.50;74.60;;;;;;10457545;28;20957;-78
2022/05/22 19:03:36;;;;;;;2.70;2.50;;;22.40;74.30;;;;;;10468859;28;20511;-78
2022/05/22 19:08:38;;;;;;;2.93;2.53;;;22.40;73.60;;;;;;10489647;28;20683;-79
2022/05/22 19:13:45;;;;;;;5.40;2.40;;;22.30;73.40;;;;;;10489318;28;20282;-78
2022/05/22 19:18:47;;;;;;;2.53;2.33;;;22.30;73.20;;;;;;10485055;28;20232;-78
2022/05/22 19:23:49;;;;;;;3.43;2.63;;;22.30;73.00;;;;;;10489343;28;20256;-78
2022/05/22 19:28:59;;;;;;;2.37;2.27;;;22.20;73.00;;;;;;10490566;28;20201;-78
2022/05/22 19:34:06;;;;;;;2.60;2.20;;;21.90;73.00;;;;;;10495599;28;20284;-79
2022/05/22 19:39:09;;;;;;;2.67;2.47;;;21.60;73.40;;;;;;10495380;28;20208;-79
2022/05/22 19:44:18;;;;;;;2.40;2.20;;;21.40;74.30;;;;;;10493892;28;20752;-79
2022/05/22 19:49:22;;;;;;;3.40;2.57;;;21.30;74.50;;;;;;10493303;28;20205;-79
2022/05/22 19:59:45;;;;;;;2.20;2.10;;;21.00;75.40;;;;;;10490101;28;20535;-78
2022/05/22 20:04:48;;;;;;;3.33;2.50;;;21.00;76.50;;;;;;10491035;28;20327;-78
2022/05/22 20:09:52;;;;;;;2.60;2.40;;;21.10;75.60;;;;;;10467055;28;20231;-78
2022/05/22 20:14:55;;;;;;;2.73;2.53;;;21.20;75.00;;;;;;10479348;28;20664;-78
2022/05/22 20:19:57;;;;;;;2.50;2.30;;;21.30;75.40;;;;;;10481189;28;20225;-78
2022/05/22 20:25:00;;;;;;;2.80;2.43;;;21.20;75.50;;;;;;10476290;28;20265;-79
2022/05/22 20:30:04;;;;;;;3.60;2.27;;;21.20;75.90;;;;;;10496300;28;20228;-79
2022/05/22 20:35:07;;;;;;;4.03;2.47;;;21.10;76.20;;;;;;10494126;28;20188;-78
2022/05/22 20:40:10;;;;;;;2.80;2.60;;;21.10;77.00;;;;;;10493276;28;20227;-78
2022/05/22 20:45:18;;;;;;;2.63;2.43;;;21.00;77.00;;;;;;10459246;28;20227;-79
2022/05/22 20:50:22;;;;;;;2.67;2.47;;;20.90;76.90;;;;;;10474218;28;20331;-78
2022/05/22 21:00:48;;;;;;;2.90;2.70;;;20.80;77.30;;;;;;10491413;28;20378;-78
2022/05/22 21:05:51;;;;;;;2.43;2.10;;;20.80;77.30;;;;;;10491877;28;20752;-78
2022/05/22 21:10:53;;;;;;;4.13;2.47;;;20.80;78.70;;;;;;10493245;28;20220;-78
2022/05/22 21:16:02;;;;;;;3.10;2.57;;;20.90;78.90;;;;;;10499557;28;20380;-78
2022/05/22 21:21:04;;;;;;;2.70;2.50;;;21.00;78.50;;;;;;10477733;28;20722;-78
2022/05/22 21:31:28;;;;;;;2.83;2.63;;;21.00;77.90;;;;;;10492968;28;20594;-77
2022/05/22 21:36:30;;;;;;;2.70;2.50;;;21.00;78.30;;;;;;10488723;28;20184;-79
2022/05/22 21:41:33;;;;;;;2.50;2.40;;;20.90;78.40;;;;;;10489694;28;20266;-78
2022/05/22 21:46:36;;;;;;;3.00;2.87;;;20.80;78.50;;;;;;10484724;28;20212;-78
2022/05/22 21:51:39;;;;;;;2.90;2.57;;;20.70;79.20;;;;;;10476285;28;20769;-78
2022/05/22 21:56:41;;;;;;;3.10;2.73;;;20.50;79.20;;;;;;10468663;28;20200;-78
2022/05/22 22:01:45;;;;;;;2.83;2.70;;;20.40;79.90;;;;;;10469333;28;20231;-78
2022/05/22 22:06:47;;;;;;;2.80;2.60;;;20.20;79.90;;;;;;10477211;28;20834;-79
2022/05/22 22:11:50;;;;;;;2.80;2.60;;;20.10;80.40;;;;;;10496959;28;20212;-78
2022/05/22 22:16:53;;;;;;;2.90;2.70;;;20.10;80.50;;;;;;10478898;28;20226;-78
2022/05/22 22:21:56;;;;;;;3.07;2.87;;;20.10;81.10;;;;;;10502092;28;20558;-78
2022/05/22 22:26:59;;;;;;;3.17;2.97;;;20.10;81.10;;;;;;10500102;28;20220;-79
2022/05/22 22:32:06;;;;;;;3.07;2.87;;;20.10;81.10;;;;;;10485978;28;20228;-78
2022/05/22 22:37:08;;;;;;;3.30;3.03;;;19.90;81.50;;;;;;10465799;28;20749;-79
2022/05/22 22:42:12;;;;;;;2.83;2.63;;;19.90;81.70;;;;;;10484646;28;20230;-78
2022/05/22 22:47:16;;;;;;;2.83;2.63;;;19.90;81.50;;;;;;10484052;28;20219;-78
2022/05/22 22:52:18;;;;;;;3.37;2.80;;;19.80;81.90;;;;;;10482356;28;20267;-79
2022/05/22 23:02:43;;;;;;;5.80;3.30;;;19.70;82.80;;;;;;10469386;28;20660;-78
2022/05/22 23:07:45;;;;;;;3.20;3.00;;;19.60;83.90;;;;;;10481755;28;20262;-78
2022/05/22 23:12:48;;;;;;;3.63;3.43;;;19.60;83.50;;;;;;10485228;28;20220;-78
2022/05/22 23:17:51;;;;;;;3.50;3.20;;;19.60;83.60;;;;;;10485821;28;20177;-79
2022/05/22 23:22:53;;;;;;;3.97;3.40;;;19.70;85.00;;;;;;10488878;28;20212;-78
2022/05/22 23:27:58;;;;;;;3.03;2.93;;;19.70;83.40;;;;;;10488148;28;20765;-78
2022/05/22 23:33:02;;;;;;;3.17;2.97;;;19.60;83.60;;;;;;10482711;28;20258;-79
2022/05/22 23:38:07;;;;;;;3.83;3.40;;;19.70;83.60;;;;;;10484814;28;20197;-79
2022/05/22 23:43:11;;;;;;;3.70;3.40;;;19.80;84.30;;;;;;10482077;28;20212;-79
2022/05/22 23:48:15;;;;;;;2.87;2.67;;;19.80;83.60;;;;;;10471719;28;20244;-79
2022/05/22 23:53:17;;;;;;;3.60;2.73;;;19.80;83.30;;;;;;10484605;28;20217;-79
2022/05/22 23:58:19;;;;;;;2.60;2.50;;;19.80;85.80;;;;;;10487463;28;20242;-79
